Gas One — 3FJA — position and weather

sailwx.info

Track history (hours):
 
Tides and Currents Weather Stations Pressure Air Temp Water Temp Dewpoint Dewpoint Depression Visibility Wind Speed Wind Dir Waves Ship Positions

Gas One

Last reported at 2018-Feb-21 20:18 UTC. Time now 2018-Feb-23 02:39 UTC.
Position N 33°41' E 134°43'.

Length 98 m; draft 5.7 m.

Type: Tanker. MMSI: 353230000.

Date/timePositionNaut miles runAvg speedWind from/ knotsBaromVisibWave heightAir tempDewpointWater temp
2018-Feb-21 20:18N 33°41' E 134°43'413.0
2018-Feb-21 20:00N 33°45' E 134°46'613.1
2018-Feb-21 19:30N 33°49' E 134°51'611.7
2018-Feb-21 19:00N 33°55' E 134°52'612.7
2018-Feb-21 18:30N 34°01' E 134°54'613.0
2018-Feb-21 18:00N 34°07' E 134°56'713.0
2018-Feb-21 17:30N 34°14' E 134°58'612.0
2018-Feb-21 17:00N 34°20' E 134°59'612.6
2018-Feb-21 16:30N 34°26' E 135°00'612.3
2018-Feb-21 16:00N 34°32' E 135°03'5 9.7
2018-Feb-21 15:31N 34°36' E 135°02'510.4
2018-Feb-21 15:00N 34°37' E 134°55'510.4
2018-Feb-21 14:31N 34°38' E 134°49'510.7
2018-Feb-21 14:00N 34°44' E 134°47'1 0.1
2018-Feb-20 23:05N 34°44' E 134°47'0 0.5
2018-Feb-20 22:59N 34°44' E 134°47'1 1.4
2018-Feb-20 22:28N 34°44' E 134°47'0 0.0
2018-Feb-20 21:52N 34°44' E 134°47'0 0.1
2018-Feb-20 21:22N 34°44' E 134°47'0 0.1
2018-Feb-20 20:58N 34°44' E 134°47'0 0.0
2018-Feb-20 20:28N 34°44' E 134°47'0 0.0
2018-Feb-20 19:52N 34°44' E 134°47'0 0.0
2018-Feb-20 19:22N 34°44' E 134°47'0 0.0
2018-Feb-20 18:58N 34°44' E 134°47'0 0.0
2018-Feb-20 18:25N 34°44' E 134°47'0 0.0
2018-Feb-20 17:55N 34°44' E 134°47'0 0.1
2018-Feb-20 17:28N 34°44' E 134°47'0 0.1
2018-Feb-20 16:58N 34°44' E 134°47'0 0.0
2018-Feb-20 16:28N 34°44' E 134°47'0 0.0
2018-Feb-20 15:55N 34°44' E 134°47'0 0.1
2018-Feb-20 15:28N 34°44' E 134°47'0 0.0
2018-Feb-20 14:58N 34°44' E 134°47'0 0.0
2018-Feb-20 14:28N 34°44' E 134°47'0 0.1
2018-Feb-20 13:58N 34°44' E 134°47'0 0.5
2018-Feb-20 13:30N 34°44' E 134°47'510.1
2018-Feb-20 13:00N 34°39' E 134°49'714.6
2018-Feb-20 12:30N 34°38' E 134°58'713.5
2018-Feb-20 12:00N 34°35' E 135°05'612.2
2018-Feb-20 11:30N 34°29' E 135°05'713.3
2018-Feb-20 11:00N 34°23' E 135°02'713.2
2018-Feb-20 10:30N 34°17' E 134°59'612.7
2018-Feb-20 10:00N 34°10' E 134°58'713.2
2018-Feb-20 09:30N 34°04' E 134°59'713.2
2018-Feb-20 09:00N 33°57' E 134°58'612.7
2018-Feb-20 08:30N 33°51' E 134°57'  
2018-Feb-18 00:32N 30°58' E 122°30'111.3
2018-Feb-18 00:28N 30°59' E 122°29'611.6
2018-Feb-17 23:59N 31°01' E 122°23'611.9
2018-Feb-17 23:30N 31°02' E 122°16'510.9
2018-Feb-17 23:00N 31°03' E 122°10'613.1
2018-Feb-17 22:30N 31°04' E 122°03'713.2
2018-Feb-17 22:00N 31°07' E 121°56'714.9
2018-Feb-17 21:30N 31°12' E 121°49'8211.3
2018-Feb-17 14:15N 32°01' E 120°32'413.7
2018-Feb-17 13:59N 32°02' E 120°28'128 2.7
2018-Feb-15 13:38N 31°00' E 122°40'0 0.1
2018-Feb-15 12:32N 31°00' E 122°40'18 1.3
2018-Feb-14 22:41N 30°57' E 123°00'  
2018-Feb-12 02:38N 34°22' E 137°18'310.1
2018-Feb-12 02:21N 34°24' E 137°21'510.3
2018-Feb-12 01:49N 34°27' E 137°26'2410.2
2018-Feb-11 23:26N 34°30' E 137°56'5 9.5
2018-Feb-11 22:55N 34°31' E 138°02'5 9.8
2018-Feb-11 22:25N 34°31' E 138°08'4 9.0
2018-Feb-11 21:58N 34°31' E 138°13'5 9.0
2018-Feb-11 21:25N 34°31' E 138°19'5 9.9
2018-Feb-11 20:54N 34°32' E 138°25'410.5
2018-Feb-11 20:30N 34°32' E 138°30'  
Track history (hours):
 
Tides and Currents Weather Stations Pressure Air Temp Water Temp Dewpoint Dewpoint Depression Visibility Wind Speed Wind Dir Waves Ship Positions

Gas One

Last reported at 2018-Feb-21 20:18 UTC. Time now 2018-Feb-23 02:39 UTC.
Position N 33°41' E 134°43'.

Length 98 m; draft 5.7 m.

Type: Tanker. MMSI: 353230000.

Date/timePositionNaut miles runAvg speedWind from/ knotsBaromVisibWave heightAir tempDewpointWater temp
2018-Feb-21 20:18N 33°41' E 134°43'413.0
2018-Feb-21 20:00N 33°45' E 134°46'613.1
2018-Feb-21 19:30N 33°49' E 134°51'611.7
2018-Feb-21 19:00N 33°55' E 134°52'612.7
2018-Feb-21 18:30N 34°01' E 134°54'613.0
2018-Feb-21 18:00N 34°07' E 134°56'713.0
2018-Feb-21 17:30N 34°14' E 134°58'612.0
2018-Feb-21 17:00N 34°20' E 134°59'612.6
2018-Feb-21 16:30N 34°26' E 135°00'612.3
2018-Feb-21 16:00N 34°32' E 135°03'5 9.7
2018-Feb-21 15:31N 34°36' E 135°02'510.4
2018-Feb-21 15:00N 34°37' E 134°55'510.4
2018-Feb-21 14:31N 34°38' E 134°49'510.7
2018-Feb-21 14:00N 34°44' E 134°47'1 0.1
2018-Feb-20 23:05N 34°44' E 134°47'0 0.5
2018-Feb-20 22:59N 34°44' E 134°47'1 1.4
2018-Feb-20 22:28N 34°44' E 134°47'0 0.0
2018-Feb-20 21:52N 34°44' E 134°47'0 0.1
2018-Feb-20 21:22N 34°44' E 134°47'0 0.1
2018-Feb-20 20:58N 34°44' E 134°47'0 0.0
2018-Feb-20 20:28N 34°44' E 134°47'0 0.0
2018-Feb-20 19:52N 34°44' E 134°47'0 0.0
2018-Feb-20 19:22N 34°44' E 134°47'0 0.0
2018-Feb-20 18:58N 34°44' E 134°47'0 0.0
2018-Feb-20 18:25N 34°44' E 134°47'0 0.0
2018-Feb-20 17:55N 34°44' E 134°47'0 0.1
2018-Feb-20 17:28N 34°44' E 134°47'0 0.1
2018-Feb-20 16:58N 34°44' E 134°47'0 0.0
2018-Feb-20 16:28N 34°44' E 134°47'0 0.0
2018-Feb-20 15:55N 34°44' E 134°47'0 0.1
2018-Feb-20 15:28N 34°44' E 134°47'0 0.0
2018-Feb-20 14:58N 34°44' E 134°47'0 0.0
2018-Feb-20 14:28N 34°44' E 134°47'0 0.1
2018-Feb-20 13:58N 34°44' E 134°47'0 0.5
2018-Feb-20 13:30N 34°44' E 134°47'510.1
2018-Feb-20 13:00N 34°39' E 134°49'714.6
2018-Feb-20 12:30N 34°38' E 134°58'713.5
2018-Feb-20 12:00N 34°35' E 135°05'612.2
2018-Feb-20 11:30N 34°29' E 135°05'713.3
2018-Feb-20 11:00N 34°23' E 135°02'713.2
2018-Feb-20 10:30N 34°17' E 134°59'612.7
2018-Feb-20 10:00N 34°10' E 134°58'713.2
2018-Feb-20 09:30N 34°04' E 134°59'713.2
2018-Feb-20 09:00N 33°57' E 134°58'612.7
2018-Feb-20 08:30N 33°51' E 134°57'  
2018-Feb-18 00:32N 30°58' E 122°30'111.3
2018-Feb-18 00:28N 30°59' E 122°29'611.6
2018-Feb-17 23:59N 31°01' E 122°23'611.9
2018-Feb-17 23:30N 31°02' E 122°16'510.9
2018-Feb-17 23:00N 31°03' E 122°10'613.1
2018-Feb-17 22:30N 31°04' E 122°03'713.2
2018-Feb-17 22:00N 31°07' E 121°56'714.9
2018-Feb-17 21:30N 31°12' E 121°49'8211.3
2018-Feb-17 14:15N 32°01' E 120°32'413.7
2018-Feb-17 13:59N 32°02' E 120°28'128 2.7
2018-Feb-15 13:38N 31°00' E 122°40'0 0.1
2018-Feb-15 12:32N 31°00' E 122°40'18 1.3
2018-Feb-14 22:41N 30°57' E 123°00'  
2018-Feb-12 02:38N 34°22' E 137°18'310.1
2018-Feb-12 02:21N 34°24' E 137°21'510.3
2018-Feb-12 01:49N 34°27' E 137°26'2410.2
2018-Feb-11 23:26N 34°30' E 137°56'5 9.5
2018-Feb-11 22:55N 34°31' E 138°02'5 9.8
2018-Feb-11 22:25N 34°31' E 138°08'4 9.0
2018-Feb-11 21:58N 34°31' E 138°13'5 9.0
2018-Feb-11 21:25N 34°31' E 138°19'5 9.9
2018-Feb-11 20:54N 34°32' E 138°25'410.5
2018-Feb-11 20:30N 34°32' E 138°30'  

Dump ship's entire track history